Terminal Aerodrome Forecast
Issued by NWS

Home | Current Version | Previous Version | Text Only | Print | Product List | Glossary On
Versions: 1 2 3 4 5 6 7 8 9 10 11 12 13 14 15 16 17 18 19 20 21 22 23 24 25 26 27
000
FTUS42 KCAE 301040 AAC
TAFCUB
TAF AMD
KCUB 301040Z 3011/3106 00000KT P6SM SCT007 SCT250
      TEMPO 3011/3013 BKN005
     FM301500 14005KT P6SM SCT050
     FM310000 VRB03KT P6SM SCT100 BKN250=

USA.gov is the U.S. government's official web portal to all federal, state and local government web resources and services.